Almanor, California
Current Conditions -  °F | °C
As of 4:55 AM on Friday 31 Oct 2014 (Local Time) from KCIC Reporting Station
Broken Clouds Broken Clouds  
Wind Chill: 63°   Ceiling: 10000
Heat Index: 63°   Visibility: 10mi
Dew Point: 50°   Wind: 21mph
Humidity: 63%   Direction: 160°SSE
Pressure: 29.83"   Gusts: 25mph
Location:  40.1766°N, 120.882°W
Report Text: KCIC 311155Z AUTO 16018G22KT 10SM BKN100 17/10 A2983 RMK AO1
Loading
Personal Weather Stations






























Interactive Weather Map
Tropical Storm Tracking
New forecast layout! Learn more

10-Day Weather Forecast

Advertisements
Track Severe Weather on mobile